sensor_id;sensor_type;location;lat;lon;timestamp;P1;durP1;ratioP1;P2;durP2;ratioP2
67776;SDS011;54576;52.020;5.536;2024-02-21T00:00:46;12.35;;;3.72;;
67776;SDS011;54576;52.020;5.536;2024-02-21T00:03:11;13.93;;;4.05;;
67776;SDS011;54576;52.020;5.536;2024-02-21T00:05:37;13.15;;;3.70;;
67776;SDS011;54576;52.020;5.536;2024-02-21T00:08:02;14.25;;;3.80;;
67776;SDS011;54576;52.020;5.536;2024-02-21T00:10:28;16.48;;;3.63;;
67776;SDS011;54576;52.020;5.536;2024-02-21T00:12:54;9.07;;;3.92;;
67776;SDS011;54576;52.020;5.536;2024-02-21T00:15:20;13.57;;;3.55;;
67776;SDS011;54576;52.020;5.536;2024-02-21T00:17:46;12.75;;;2.90;;
67776;SDS011;54576;52.020;5.536;2024-02-21T00:20:13;13.40;;;3.97;;
67776;SDS011;54576;52.020;5.536;2024-02-21T00:22:39;13.38;;;3.60;;
67776;SDS011;54576;52.020;5.536;2024-02-21T00:25:05;11.90;;;3.55;;
67776;SDS011;54576;52.020;5.536;2024-02-21T00:27:32;12.80;;;3.47;;
67776;SDS011;54576;52.020;5.536;2024-02-21T00:29:58;20.27;;;4.38;;
67776;SDS011;54576;52.020;5.536;2024-02-21T00:32:24;11.52;;;3.15;;
67776;SDS011;54576;52.020;5.536;2024-02-21T00:34:49;8.93;;;3.03;;
67776;SDS011;54576;52.020;5.536;2024-02-21T00:37:15;12.13;;;3.83;;
67776;SDS011;54576;52.020;5.536;2024-02-21T00:39:41;9.82;;;3.55;;
67776;SDS011;54576;52.020;5.536;2024-02-21T00:42:07;8.57;;;3.92;;
67776;SDS011;54576;52.020;5.536;2024-02-21T00:44:33;14.00;;;4.30;;
67776;SDS011;54576;52.020;5.536;2024-02-21T00:46:59;11.77;;;3.63;;
67776;SDS011;54576;52.020;5.536;2024-02-21T00:49:25;16.65;;;4.00;;
67776;SDS011;54576;52.020;5.536;2024-02-21T00:51:51;9.52;;;3.85;;
67776;SDS011;54576;52.020;5.536;2024-02-21T00:54:17;13.48;;;3.60;;
67776;SDS011;54576;52.020;5.536;2024-02-21T00:56:43;14.98;;;4.10;;
67776;SDS011;54576;52.020;5.536;2024-02-21T00:59:08;14.63;;;3.97;;
67776;SDS011;54576;52.020;5.536;2024-02-21T01:01:34;8.23;;;3.83;;
67776;SDS011;54576;52.020;5.536;2024-02-21T01:04:06;13.25;;;4.40;;
67776;SDS011;54576;52.020;5.536;2024-02-21T01:06:32;13.32;;;4.10;;
67776;SDS011;54576;52.020;5.536;2024-02-21T01:08:58;11.95;;;3.90;;
67776;SDS011;54576;52.020;5.536;2024-02-21T01:11:24;17.83;;;4.47;;
67776;SDS011;54576;52.020;5.536;2024-02-21T01:13:50;17.15;;;3.92;;
67776;SDS011;54576;52.020;5.536;2024-02-21T01:16:16;19.40;;;4.45;;
67776;SDS011;54576;52.020;5.536;2024-02-21T01:18:42;16.80;;;4.22;;
67776;SDS011;54576;52.020;5.536;2024-02-21T01:21:08;16.45;;;3.50;;
67776;SDS011;54576;52.020;5.536;2024-02-21T01:23:35;17.13;;;3.75;;
67776;SDS011;54576;52.020;5.536;2024-02-21T01:26:01;15.65;;;4.03;;
67776;SDS011;54576;52.020;5.536;2024-02-21T01:28:27;12.48;;;3.60;;
67776;SDS011;54576;52.020;5.536;2024-02-21T01:30:53;15.95;;;3.97;;
67776;SDS011;54576;52.020;5.536;2024-02-21T01:33:19;11.57;;;2.70;;
67776;SDS011;54576;52.020;5.536;2024-02-21T01:35:45;12.93;;;3.42;;
67776;SDS011;54576;52.020;5.536;2024-02-21T01:38:12;13.63;;;3.58;;
67776;SDS011;54576;52.020;5.536;2024-02-21T01:40:38;14.75;;;3.47;;
67776;SDS011;54576;52.020;5.536;2024-02-21T01:43:14;12.98;;;3.55;;
67776;SDS011;54576;52.020;5.536;2024-02-21T01:45:40;7.47;;;3.10;;
67776;SDS011;54576;52.020;5.536;2024-02-21T01:48:06;14.93;;;4.03;;
67776;SDS011;54576;52.020;5.536;2024-02-21T01:50:32;17.98;;;3.58;;
67776;SDS011;54576;52.020;5.536;2024-02-21T01:52:59;9.40;;;3.25;;
67776;SDS011;54576;52.020;5.536;2024-02-21T01:55:25;18.42;;;3.97;;
67776;SDS011;54576;52.020;5.536;2024-02-21T01:57:51;9.93;;;2.90;;
67776;SDS011;54576;52.020;5.536;2024-02-21T02:00:17;17.42;;;3.75;;
67776;SDS011;54576;52.020;5.536;2024-02-21T02:02:44;20.42;;;4.28;;
67776;SDS011;54576;52.020;5.536;2024-02-21T02:05:11;11.63;;;3.53;;
67776;SDS011;54576;52.020;5.536;2024-02-21T02:07:37;11.88;;;3.30;;
67776;SDS011;54576;52.020;5.536;2024-02-21T02:10:03;16.88;;;3.70;;
67776;SDS011;54576;52.020;5.536;2024-02-21T02:12:29;8.88;;;2.95;;
67776;SDS011;54576;52.020;5.536;2024-02-21T02:15:02;12.15;;;3.60;;
67776;SDS011;54576;52.020;5.536;2024-02-21T02:17:31;14.98;;;3.20;;
67776;SDS011;54576;52.020;5.536;2024-02-21T02:19:57;12.85;;;3.78;;
67776;SDS011;54576;52.020;5.536;2024-02-21T02:22:25;12.18;;;3.97;;
67776;SDS011;54576;52.020;5.536;2024-02-21T02:24:53;12.70;;;3.95;;
67776;SDS011;54576;52.020;5.536;2024-02-21T02:27:20;19.27;;;3.90;;
67776;SDS011;54576;52.020;5.536;2024-02-21T02:29:47;13.05;;;4.20;;
67776;SDS011;54576;52.020;5.536;2024-02-21T02:32:13;7.13;;;3.55;;
67776;SDS011;54576;52.020;5.536;2024-02-21T02:34:39;12.13;;;4.07;;
67776;SDS011;54576;52.020;5.536;2024-02-21T02:37:04;13.95;;;4.20;;
67776;SDS011;54576;52.020;5.536;2024-02-21T02:39:30;11.05;;;3.55;;
67776;SDS011;54576;52.020;5.536;2024-02-21T02:41:56;16.15;;;4.05;;
67776;SDS011;54576;52.020;5.536;2024-02-21T02:44:21;18.92;;;4.15;;
67776;SDS011;54576;52.020;5.536;2024-02-21T02:46:47;16.65;;;4.82;;
67776;SDS011;54576;52.020;5.536;2024-02-21T02:49:12;15.85;;;4.20;;
67776;SDS011;54576;52.020;5.536;2024-02-21T02:51:41;12.75;;;3.97;;
67776;SDS011;54576;52.020;5.536;2024-02-21T02:54:07;11.38;;;3.50;;
67776;SDS011;54576;52.020;5.536;2024-02-21T02:56:33;17.50;;;4.10;;
67776;SDS011;54576;52.020;5.536;2024-02-21T02:58:58;12.38;;;4.85;;
67776;SDS011;54576;52.020;5.536;2024-02-21T03:01:27;21.55;;;3.80;;
67776;SDS011;54576;52.020;5.536;2024-02-21T03:03:53;14.20;;;4.07;;
67776;SDS011;54576;52.020;5.536;2024-02-21T03:06:19;11.82;;;3.97;;
67776;SDS011;54576;52.020;5.536;2024-02-21T03:08:44;12.27;;;4.28;;
67776;SDS011;54576;52.020;5.536;2024-02-21T03:11:10;12.60;;;3.63;;
67776;SDS011;54576;52.020;5.536;2024-02-21T03:13:36;23.25;;;5.18;;
67776;SDS011;54576;52.020;5.536;2024-02-21T03:16:02;10.90;;;4.05;;
67776;SDS011;54576;52.020;5.536;2024-02-21T03:18:27;15.55;;;4.63;;
67776;SDS011;54576;52.020;5.536;2024-02-21T03:20:53;14.48;;;4.28;;
67776;SDS011;54576;52.020;5.536;2024-02-21T03:23:19;13.70;;;3.95;;
67776;SDS011;54576;52.020;5.536;2024-02-21T03:25:44;17.60;;;4.47;;
67776;SDS011;54576;52.020;5.536;2024-02-21T03:28:10;18.38;;;4.25;;
67776;SDS011;54576;52.020;5.536;2024-02-21T03:30:35;19.80;;;4.10;;
67776;SDS011;54576;52.020;5.536;2024-02-21T03:33:02;19.50;;;4.60;;
67776;SDS011;54576;52.020;5.536;2024-02-21T03:35:28;9.45;;;4.13;;
67776;SDS011;54576;52.020;5.536;2024-02-21T03:37:53;13.48;;;4.53;;
67776;SDS011;54576;52.020;5.536;2024-02-21T03:40:19;19.50;;;5.07;;
67776;SDS011;54576;52.020;5.536;2024-02-21T03:42:44;14.60;;;4.50;;
67776;SDS011;54576;52.020;5.536;2024-02-21T03:45:10;15.25;;;3.90;;
67776;SDS011;54576;52.020;5.536;2024-02-21T03:47:36;15.23;;;4.03;;
67776;SDS011;54576;52.020;5.536;2024-02-21T03:50:02;11.10;;;3.47;;
67776;SDS011;54576;52.020;5.536;2024-02-21T03:52:27;11.82;;;3.90;;
67776;SDS011;54576;52.020;5.536;2024-02-21T03:54:53;16.25;;;4.03;;
67776;SDS011;54576;52.020;5.536;2024-02-21T03:57:20;16.65;;;4.10;;
67776;SDS011;54576;52.020;5.536;2024-02-21T03:59:46;11.70;;;4.15;;
67776;SDS011;54576;52.020;5.536;2024-02-21T04:02:11;11.15;;;3.50;;
67776;SDS011;54576;52.020;5.536;2024-02-21T04:04:37;18.17;;;4.18;;
67776;SDS011;54576;52.020;5.536;2024-02-21T04:07:03;9.13;;;3.60;;
67776;SDS011;54576;52.020;5.536;2024-02-21T04:09:33;18.23;;;4.40;;
67776;SDS011;54576;52.020;5.536;2024-02-21T04:11:59;15.15;;;3.85;;
67776;SDS011;54576;52.020;5.536;2024-02-21T04:14:25;12.75;;;4.75;;
67776;SDS011;54576;52.020;5.536;2024-02-21T04:16:54;18.02;;;4.13;;
67776;SDS011;54576;52.020;5.536;2024-02-21T04:19:19;14.95;;;3.92;;
67776;SDS011;54576;52.020;5.536;2024-02-21T04:21:45;16.30;;;5.10;;
67776;SDS011;54576;52.020;5.536;2024-02-21T04:24:10;18.55;;;4.13;;
67776;SDS011;54576;52.020;5.536;2024-02-21T04:26:36;19.60;;;4.25;;
67776;SDS011;54576;52.020;5.536;2024-02-21T04:29:02;12.32;;;3.80;;
67776;SDS011;54576;52.020;5.536;2024-02-21T04:31:27;14.52;;;4.00;;
67776;SDS011;54576;52.020;5.536;2024-02-21T04:33:53;10.05;;;4.13;;
67776;SDS011;54576;52.020;5.536;2024-02-21T04:36:18;8.80;;;4.00;;
67776;SDS011;54576;52.020;5.536;2024-02-21T04:38:44;18.65;;;5.13;;
67776;SDS011;54576;52.020;5.536;2024-02-21T04:41:10;14.50;;;4.55;;
67776;SDS011;54576;52.020;5.536;2024-02-21T04:43:35;19.58;;;4.43;;
67776;SDS011;54576;52.020;5.536;2024-02-21T04:46:01;15.77;;;4.85;;
67776;SDS011;54576;52.020;5.536;2024-02-21T04:48:27;14.20;;;5.05;;
67776;SDS011;54576;52.020;5.536;2024-02-21T04:50:52;12.85;;;5.03;;
67776;SDS011;54576;52.020;5.536;2024-02-21T04:53:18;15.07;;;4.50;;
67776;SDS011;54576;52.020;5.536;2024-02-21T04:55:43;16.83;;;5.13;;
67776;SDS011;54576;52.020;5.536;2024-02-21T04:58:09;12.82;;;4.78;;
67776;SDS011;54576;52.020;5.536;2024-02-21T05:00:35;12.32;;;5.05;;
67776;SDS011;54576;52.020;5.536;2024-02-21T05:03:00;15.73;;;5.05;;
67776;SDS011;54576;52.020;5.536;2024-02-21T05:05:26;22.08;;;5.10;;
67776;SDS011;54576;52.020;5.536;2024-02-21T05:07:51;14.15;;;4.88;;
67776;SDS011;54576;52.020;5.536;2024-02-21T05:10:17;12.18;;;4.50;;
67776;SDS011;54576;52.020;5.536;2024-02-21T05:12:44;15.65;;;4.95;;
67776;SDS011;54576;52.020;5.536;2024-02-21T05:15:09;17.48;;;5.25;;
67776;SDS011;54576;52.020;5.536;2024-02-21T05:17:35;18.70;;;5.70;;
67776;SDS011;54576;52.020;5.536;2024-02-21T05:20:01;14.02;;;5.22;;
67776;SDS011;54576;52.020;5.536;2024-02-21T05:22:26;14.18;;;5.50;;
67776;SDS011;54576;52.020;5.536;2024-02-21T05:24:52;11.90;;;5.45;;
67776;SDS011;54576;52.020;5.536;2024-02-21T05:27:17;16.08;;;5.43;;
67776;SDS011;54576;52.020;5.536;2024-02-21T05:29:43;15.75;;;5.45;;
67776;SDS011;54576;52.020;5.536;2024-02-21T05:32:09;9.88;;;4.40;;
67776;SDS011;54576;52.020;5.536;2024-02-21T05:34:34;17.02;;;5.55;;
67776;SDS011;54576;52.020;5.536;2024-02-21T05:37:00;19.60;;;5.93;;
67776;SDS011;54576;52.020;5.536;2024-02-21T05:39:26;15.35;;;5.15;;
67776;SDS011;54576;52.020;5.536;2024-02-21T05:41:51;13.02;;;5.68;;
67776;SDS011;54576;52.020;5.536;2024-02-21T05:44:17;14.60;;;5.88;;
67776;SDS011;54576;52.020;5.536;2024-02-21T05:46:43;21.67;;;7.85;;
67776;SDS011;54576;52.020;5.536;2024-02-21T05:49:12;17.92;;;6.63;;
67776;SDS011;54576;52.020;5.536;2024-02-21T05:51:37;14.32;;;5.95;;
67776;SDS011;54576;52.020;5.536;2024-02-21T05:54:03;16.10;;;6.65;;
67776;SDS011;54576;52.020;5.536;2024-02-21T05:56:28;15.70;;;5.85;;
67776;SDS011;54576;52.020;5.536;2024-02-21T05:58:54;17.20;;;7.38;;
67776;SDS011;54576;52.020;5.536;2024-02-21T06:01:20;18.58;;;6.80;;
67776;SDS011;54576;52.020;5.536;2024-02-21T06:03:46;16.42;;;7.57;;
67776;SDS011;54576;52.020;5.536;2024-02-21T06:06:12;23.02;;;7.55;;
67776;SDS011;54576;52.020;5.536;2024-02-21T06:08:39;25.00;;;7.93;;
67776;SDS011;54576;52.020;5.536;2024-02-21T06:11:05;18.90;;;7.82;;
67776;SDS011;54576;52.020;5.536;2024-02-21T06:13:31;30.63;;;8.43;;
67776;SDS011;54576;52.020;5.536;2024-02-21T06:15:56;19.08;;;8.70;;
67776;SDS011;54576;52.020;5.536;2024-02-21T06:18:22;20.63;;;8.43;;
67776;SDS011;54576;52.020;5.536;2024-02-21T06:20:47;20.77;;;9.13;;
67776;SDS011;54576;52.020;5.536;2024-02-21T06:23:14;30.15;;;9.68;;
67776;SDS011;54576;52.020;5.536;2024-02-21T06:25:41;24.05;;;8.52;;
67776;SDS011;54576;52.020;5.536;2024-02-21T06:28:07;21.02;;;8.38;;
67776;SDS011;54576;52.020;5.536;2024-02-21T06:30:33;21.15;;;9.48;;
67776;SDS011;54576;52.020;5.536;2024-02-21T06:32:59;26.55;;;8.82;;
67776;SDS011;54576;52.020;5.536;2024-02-21T06:35:24;25.92;;;9.05;;
67776;SDS011;54576;52.020;5.536;2024-02-21T06:37:50;21.83;;;8.90;;
67776;SDS011;54576;52.020;5.536;2024-02-21T06:40:17;22.63;;;8.48;;
67776;SDS011;54576;52.020;5.536;2024-02-21T06:42:43;17.42;;;8.30;;
67776;SDS011;54576;52.020;5.536;2024-02-21T06:45:09;32.58;;;8.90;;
67776;SDS011;54576;52.020;5.536;2024-02-21T06:47:34;25.23;;;9.68;;
67776;SDS011;54576;52.020;5.536;2024-02-21T06:50:00;22.55;;;9.27;;
67776;SDS011;54576;52.020;5.536;2024-02-21T06:52:25;26.10;;;8.43;;
67776;SDS011;54576;52.020;5.536;2024-02-21T06:54:51;19.75;;;8.27;;
67776;SDS011;54576;52.020;5.536;2024-02-21T06:57:17;20.23;;;8.00;;
67776;SDS011;54576;52.020;5.536;2024-02-21T06:59:42;25.92;;;7.60;;
67776;SDS011;54576;52.020;5.536;2024-02-21T07:02:08;27.42;;;8.07;;
67776;SDS011;54576;52.020;5.536;2024-02-21T07:04:34;22.00;;;7.88;;
67776;SDS011;54576;52.020;5.536;2024-02-21T07:06:59;15.90;;;6.15;;
67776;SDS011;54576;52.020;5.536;2024-02-21T07:09:25;22.67;;;8.23;;
67776;SDS011;54576;52.020;5.536;2024-02-21T07:11:51;24.08;;;7.75;;
67776;SDS011;54576;52.020;5.536;2024-02-21T07:14:17;18.92;;;7.97;;
67776;SDS011;54576;52.020;5.536;2024-02-21T07:16:43;21.45;;;7.47;;
67776;SDS011;54576;52.020;5.536;2024-02-21T07:19:09;26.10;;;7.18;;
67776;SDS011;54576;52.020;5.536;2024-02-21T07:21:34;23.67;;;7.35;;
67776;SDS011;54576;52.020;5.536;2024-02-21T07:24:02;15.10;;;6.90;;
67776;SDS011;54576;52.020;5.536;2024-02-21T07:26:29;15.60;;;6.85;;
67776;SDS011;54576;52.020;5.536;2024-02-21T07:28:54;21.65;;;7.07;;
67776;SDS011;54576;52.020;5.536;2024-02-21T07:31:20;27.52;;;7.72;;
67776;SDS011;54576;52.020;5.536;2024-02-21T07:33:45;18.60;;;7.53;;
67776;SDS011;54576;52.020;5.536;2024-02-21T07:36:11;22.33;;;7.18;;
67776;SDS011;54576;52.020;5.536;2024-02-21T07:38:36;21.10;;;7.80;;
67776;SDS011;54576;52.020;5.536;2024-02-21T07:41:02;11.70;;;6.30;;
67776;SDS011;54576;52.020;5.536;2024-02-21T07:43:29;21.60;;;6.90;;
67776;SDS011;54576;52.020;5.536;2024-02-21T07:45:54;23.08;;;6.97;;
67776;SDS011;54576;52.020;5.536;2024-02-21T07:48:21;14.82;;;6.07;;
67776;SDS011;54576;52.020;5.536;2024-02-21T07:50:49;15.35;;;6.40;;
67776;SDS011;54576;52.020;5.536;2024-02-21T07:53:19;22.27;;;7.85;;
67776;SDS011;54576;52.020;5.536;2024-02-21T07:55:45;23.45;;;7.40;;
67776;SDS011;54576;52.020;5.536;2024-02-21T07:58:11;26.90;;;7.88;;
67776;SDS011;54576;52.020;5.536;2024-02-21T08:00:36;17.35;;;8.07;;
67776;SDS011;54576;52.020;5.536;2024-02-21T08:03:02;20.58;;;8.38;;
67776;SDS011;54576;52.020;5.536;2024-02-21T08:05:28;21.48;;;7.25;;
67776;SDS011;54576;52.020;5.536;2024-02-21T08:07:55;22.30;;;6.70;;
67776;SDS011;54576;52.020;5.536;2024-02-21T08:10:20;21.92;;;6.95;;
67776;SDS011;54576;52.020;5.536;2024-02-21T08:12:46;29.42;;;7.35;;
67776;SDS011;54576;52.020;5.536;2024-02-21T08:15:11;19.27;;;7.20;;
67776;SDS011;54576;52.020;5.536;2024-02-21T08:17:37;21.60;;;7.65;;
67776;SDS011;54576;52.020;5.536;2024-02-21T08:20:03;31.42;;;8.75;;
67776;SDS011;54576;52.020;5.536;2024-02-21T08:22:29;19.42;;;7.22;;
67776;SDS011;54576;52.020;5.536;2024-02-21T08:24:55;19.50;;;8.05;;
67776;SDS011;54576;52.020;5.536;2024-02-21T08:27:22;21.25;;;7.18;;
67776;SDS011;54576;52.020;5.536;2024-02-21T08:29:47;21.77;;;7.25;;
67776;SDS011;54576;52.020;5.536;2024-02-21T08:32:13;18.33;;;7.13;;
67776;SDS011;54576;52.020;5.536;2024-02-21T08:34:38;20.70;;;6.57;;
67776;SDS011;54576;52.020;5.536;2024-02-21T08:37:04;20.52;;;6.63;;
67776;SDS011;54576;52.020;5.536;2024-02-21T08:39:30;27.38;;;7.53;;
67776;SDS011;54576;52.020;5.536;2024-02-21T08:41:55;18.02;;;6.53;;
67776;SDS011;54576;52.020;5.536;2024-02-21T08:44:25;19.90;;;7.28;;
67776;SDS011;54576;52.020;5.536;2024-02-21T08:46:51;18.80;;;7.25;;
67776;SDS011;54576;52.020;5.536;2024-02-21T08:49:17;14.35;;;5.90;;
67776;SDS011;54576;52.020;5.536;2024-02-21T08:51:42;24.33;;;7.20;;
67776;SDS011;54576;52.020;5.536;2024-02-21T08:54:08;25.73;;;8.27;;
67776;SDS011;54576;52.020;5.536;2024-02-21T08:56:34;18.60;;;6.95;;
67776;SDS011;54576;52.020;5.536;2024-02-21T08:59:00;18.20;;;7.18;;
67776;SDS011;54576;52.020;5.536;2024-02-21T09:01:26;14.63;;;6.38;;
67776;SDS011;54576;52.020;5.536;2024-02-21T09:03:52;17.83;;;6.25;;
67776;SDS011;54576;52.020;5.536;2024-02-21T09:06:18;16.52;;;7.53;;
67776;SDS011;54576;52.020;5.536;2024-02-21T09:08:44;15.43;;;6.80;;
67776;SDS011;54576;52.020;5.536;2024-02-21T09:11:10;20.30;;;6.75;;
67776;SDS011;54576;52.020;5.536;2024-02-21T09:13:36;16.90;;;6.57;;
67776;SDS011;54576;52.020;5.536;2024-02-21T09:16:02;16.77;;;6.88;;
67776;SDS011;54576;52.020;5.536;2024-02-21T09:18:28;14.05;;;6.40;;
67776;SDS011;54576;52.020;5.536;2024-02-21T09:20:54;20.77;;;6.30;;
67776;SDS011;54576;52.020;5.536;2024-02-21T09:23:20;14.82;;;6.13;;
67776;SDS011;54576;52.020;5.536;2024-02-21T09:25:45;17.25;;;5.88;;
67776;SDS011;54576;52.020;5.536;2024-02-21T09:28:11;16.35;;;6.45;;
67776;SDS011;54576;52.020;5.536;2024-02-21T09:30:38;21.38;;;7.15;;
67776;SDS011;54576;52.020;5.536;2024-02-21T09:33:03;14.75;;;6.15;;
67776;SDS011;54576;52.020;5.536;2024-02-21T09:35:30;13.00;;;5.90;;
67776;SDS011;54576;52.020;5.536;2024-02-21T09:37:55;11.82;;;5.90;;
67776;SDS011;54576;52.020;5.536;2024-02-21T09:40:21;16.80;;;6.13;;
67776;SDS011;54576;52.020;5.536;2024-02-21T09:42:47;14.82;;;6.50;;
67776;SDS011;54576;52.020;5.536;2024-02-21T09:45:20;13.20;;;6.47;;
67776;SDS011;54576;52.020;5.536;2024-02-21T09:50:31;14.07;;;6.18;;
67776;SDS011;54576;52.020;5.536;2024-02-21T09:52:58;13.40;;;5.38;;
67776;SDS011;54576;52.020;5.536;2024-02-21T09:55:26;11.68;;;5.40;;
67776;SDS011;54576;52.020;5.536;2024-02-21T09:57:54;11.93;;;5.75;;
67776;SDS011;54576;52.020;5.536;2024-02-21T10:00:20;12.75;;;5.65;;
67776;SDS011;54576;52.020;5.536;2024-02-21T10:02:49;13.93;;;6.53;;
67776;SDS011;54576;52.020;5.536;2024-02-21T10:05:15;19.02;;;5.93;;
67776;SDS011;54576;52.020;5.536;2024-02-21T10:07:41;14.18;;;5.47;;
67776;SDS011;54576;52.020;5.536;2024-02-21T10:10:07;19.65;;;5.22;;
67776;SDS011;54576;52.020;5.536;2024-02-21T10:12:33;8.90;;;4.72;;
67776;SDS011;54576;52.020;5.536;2024-02-21T10:15:05;10.55;;;5.03;;
67776;SDS011;54576;52.020;5.536;2024-02-21T10:17:32;24.00;;;5.43;;
67776;SDS011;54576;52.020;5.536;2024-02-21T10:20:07;11.48;;;4.38;;
67776;SDS011;54576;52.020;5.536;2024-02-21T10:22:34;8.05;;;4.38;;
67776;SDS011;54576;52.020;5.536;2024-02-21T10:25:35;10.45;;;4.82;;
67776;SDS011;54576;52.020;5.536;2024-02-21T10:27:53;10.95;;;4.55;;
67776;SDS011;54576;52.020;5.536;2024-02-21T10:30:19;7.32;;;4.28;;
67776;SDS011;54576;52.020;5.536;2024-02-21T10:32:49;8.23;;;4.40;;
67776;SDS011;54576;52.020;5.536;2024-02-21T10:35:24;8.95;;;4.10;;
67776;SDS011;54576;52.020;5.536;2024-02-21T10:37:51;7.80;;;4.10;;
67776;SDS011;54576;52.020;5.536;2024-02-21T10:40:20;4.43;;;3.80;;
67776;SDS011;54576;52.020;5.536;2024-02-21T10:42:51;4.28;;;3.22;;
67776;SDS011;54576;52.020;5.536;2024-02-21T10:45:31;5.97;;;3.47;;
67776;SDS011;54576;52.020;5.536;2024-02-21T10:48:01;7.32;;;3.15;;
67776;SDS011;54576;52.020;5.536;2024-02-21T10:50:31;6.82;;;2.92;;
67776;SDS011;54576;52.020;5.536;2024-02-21T10:53:16;21.30;;;3.80;;
67776;SDS011;54576;52.020;5.536;2024-02-21T10:55:53;11.85;;;3.38;;
67776;SDS011;54576;52.020;5.536;2024-02-21T10:58:25;6.70;;;3.60;;
67776;SDS011;54576;52.020;5.536;2024-02-21T11:00:53;6.13;;;4.18;;
67776;SDS011;54576;52.020;5.536;2024-02-21T11:03:19;6.70;;;3.97;;
67776;SDS011;54576;52.020;5.536;2024-02-21T11:05:45;5.88;;;3.53;;
67776;SDS011;54576;52.020;5.536;2024-02-21T11:08:11;5.90;;;3.67;;
67776;SDS011;54576;52.020;5.536;2024-02-21T11:10:37;11.95;;;4.00;;
67776;SDS011;54576;52.020;5.536;2024-02-21T11:15:33;4.47;;;3.85;;
67776;SDS011;54576;52.020;5.536;2024-02-21T11:17:58;4.43;;;3.88;;
67776;SDS011;54576;52.020;5.536;2024-02-21T11:20:36;9.95;;;4.38;;
67776;SDS011;54576;52.020;5.536;2024-02-21T11:23:02;11.52;;;4.90;;
67776;SDS011;54576;52.020;5.536;2024-02-21T11:25:28;11.88;;;5.00;;
67776;SDS011;54576;52.020;5.536;2024-02-21T11:28:02;8.27;;;5.18;;
67776;SDS011;54576;52.020;5.536;2024-02-21T11:30:32;12.00;;;4.47;;
67776;SDS011;54576;52.020;5.536;2024-02-21T11:33:03;12.70;;;4.90;;
67776;SDS011;54576;52.020;5.536;2024-02-21T11:35:34;10.50;;;5.35;;
67776;SDS011;54576;52.020;5.536;2024-02-21T11:40:44;12.50;;;4.90;;
67776;SDS011;54576;52.020;5.536;2024-02-21T11:43:10;11.45;;;5.25;;
67776;SDS011;54576;52.020;5.536;2024-02-21T11:45:36;12.90;;;5.15;;
67776;SDS011;54576;52.020;5.536;2024-02-21T11:48:03;11.65;;;4.55;;
67776;SDS011;54576;52.020;5.536;2024-02-21T11:50:30;9.98;;;4.57;;
67776;SDS011;54576;52.020;5.536;2024-02-21T11:52:56;13.45;;;4.78;;
67776;SDS011;54576;52.020;5.536;2024-02-21T11:55:22;11.68;;;4.75;;
67776;SDS011;54576;52.020;5.536;2024-02-21T11:57:48;9.90;;;5.28;;
67776;SDS011;54576;52.020;5.536;2024-02-21T12:00:14;10.68;;;5.20;;
67776;SDS011;54576;52.020;5.536;2024-02-21T12:02:40;14.20;;;4.95;;
67776;SDS011;54576;52.020;5.536;2024-02-21T12:05:06;9.55;;;4.53;;
67776;SDS011;54576;52.020;5.536;2024-02-21T12:07:33;11.52;;;4.30;;
67776;SDS011;54576;52.020;5.536;2024-02-21T12:09:58;16.60;;;4.68;;
67776;SDS011;54576;52.020;5.536;2024-02-21T12:12:25;12.45;;;4.43;;
67776;SDS011;54576;52.020;5.536;2024-02-21T12:15:00;10.25;;;4.15;;
67776;SDS011;54576;52.020;5.536;2024-02-21T12:17:26;10.70;;;4.07;;
67776;SDS011;54576;52.020;5.536;2024-02-21T12:19:52;9.45;;;4.40;;
67776;SDS011;54576;52.020;5.536;2024-02-21T12:22:20;6.18;;;3.53;;
67776;SDS011;54576;52.020;5.536;2024-02-21T12:24:46;28.65;;;7.13;;
67776;SDS011;54576;52.020;5.536;2024-02-21T12:27:12;17.20;;;4.22;;
67776;SDS011;54576;52.020;5.536;2024-02-21T12:29:39;7.68;;;3.35;;
67776;SDS011;54576;52.020;5.536;2024-02-21T12:32:04;7.10;;;3.58;;
67776;SDS011;54576;52.020;5.536;2024-02-21T12:34:30;9.23;;;4.03;;
67776;SDS011;54576;52.020;5.536;2024-02-21T12:36:58;9.98;;;3.10;;
67776;SDS011;54576;52.020;5.536;2024-02-21T12:39:24;8.35;;;3.70;;
67776;SDS011;54576;52.020;5.536;2024-02-21T12:41:52;13.82;;;3.97;;
67776;SDS011;54576;52.020;5.536;2024-02-21T12:44:19;6.68;;;3.40;;
67776;SDS011;54576;52.020;5.536;2024-02-21T12:46:44;13.02;;;3.88;;
67776;SDS011;54576;52.020;5.536;2024-02-21T12:49:10;12.82;;;4.10;;
67776;SDS011;54576;52.020;5.536;2024-02-21T12:51:36;20.85;;;4.50;;
67776;SDS011;54576;52.020;5.536;2024-02-21T12:54:02;16.73;;;4.15;;
67776;SDS011;54576;52.020;5.536;2024-02-21T12:56:28;17.30;;;3.42;;
67776;SDS011;54576;52.020;5.536;2024-02-21T12:58:56;11.63;;;3.35;;
67776;SDS011;54576;52.020;5.536;2024-02-21T13:01:22;8.82;;;3.03;;
67776;SDS011;54576;52.020;5.536;2024-02-21T13:03:47;10.80;;;3.67;;
67776;SDS011;54576;52.020;5.536;2024-02-21T13:06:13;5.93;;;3.08;;
67776;SDS011;54576;52.020;5.536;2024-02-21T13:08:39;10.20;;;3.80;;
67776;SDS011;54576;52.020;5.536;2024-02-21T13:11:05;9.30;;;2.97;;
67776;SDS011;54576;52.020;5.536;2024-02-21T13:13:30;7.10;;;3.40;;
67776;SDS011;54576;52.020;5.536;2024-02-21T13:15:57;11.27;;;4.05;;
67776;SDS011;54576;52.020;5.536;2024-02-21T13:18:23;10.80;;;3.40;;
67776;SDS011;54576;52.020;5.536;2024-02-21T13:20:49;10.32;;;3.40;;
67776;SDS011;54576;52.020;5.536;2024-02-21T13:23:14;9.13;;;3.80;;
67776;SDS011;54576;52.020;5.536;2024-02-21T13:25:40;13.90;;;3.42;;
67776;SDS011;54576;52.020;5.536;2024-02-21T13:28:06;13.85;;;3.65;;
67776;SDS011;54576;52.020;5.536;2024-02-21T13:30:32;6.40;;;2.92;;
67776;SDS011;54576;52.020;5.536;2024-02-21T13:32:57;10.05;;;3.33;;
67776;SDS011;54576;52.020;5.536;2024-02-21T13:35:23;8.68;;;2.83;;
67776;SDS011;54576;52.020;5.536;2024-02-21T13:37:48;11.70;;;2.90;;
67776;SDS011;54576;52.020;5.536;2024-02-21T13:40:16;10.63;;;3.00;;
67776;SDS011;54576;52.020;5.536;2024-02-21T13:42:42;10.25;;;3.33;;
67776;SDS011;54576;52.020;5.536;2024-02-21T13:45:09;7.18;;;3.22;;
67776;SDS011;54576;52.020;5.536;2024-02-21T13:47:35;13.73;;;3.35;;
67776;SDS011;54576;52.020;5.536;2024-02-21T13:52:30;9.10;;;2.90;;
67776;SDS011;54576;52.020;5.536;2024-02-21T13:54:56;13.43;;;3.38;;
67776;SDS011;54576;52.020;5.536;2024-02-21T13:57:22;7.75;;;3.40;;
67776;SDS011;54576;52.020;5.536;2024-02-21T13:59:48;12.68;;;3.03;;
67776;SDS011;54576;52.020;5.536;2024-02-21T14:02:13;10.13;;;3.10;;
67776;SDS011;54576;52.020;5.536;2024-02-21T14:04:39;8.52;;;2.88;;
67776;SDS011;54576;52.020;5.536;2024-02-21T14:07:05;10.00;;;3.70;;
67776;SDS011;54576;52.020;5.536;2024-02-21T14:09:30;5.55;;;2.60;;
67776;SDS011;54576;52.020;5.536;2024-02-21T14:11:58;9.98;;;2.78;;
67776;SDS011;54576;52.020;5.536;2024-02-21T14:14:23;10.60;;;3.38;;
67776;SDS011;54576;52.020;5.536;2024-02-21T14:16:49;10.60;;;3.30;;
67776;SDS011;54576;52.020;5.536;2024-02-21T14:19:15;6.93;;;2.95;;
67776;SDS011;54576;52.020;5.536;2024-02-21T14:21:44;10.50;;;2.63;;
67776;SDS011;54576;52.020;5.536;2024-02-21T14:24:11;7.22;;;2.72;;
67776;SDS011;54576;52.020;5.536;2024-02-21T14:26:37;9.30;;;2.72;;
67776;SDS011;54576;52.020;5.536;2024-02-21T14:29:04;11.23;;;2.85;;
67776;SDS011;54576;52.020;5.536;2024-02-21T14:31:32;6.00;;;2.30;;
67776;SDS011;54576;52.020;5.536;2024-02-21T14:33:58;10.15;;;2.58;;
67776;SDS011;54576;52.020;5.536;2024-02-21T14:36:24;17.88;;;2.97;;
67776;SDS011;54576;52.020;5.536;2024-02-21T14:38:50;9.05;;;2.10;;
67776;SDS011;54576;52.020;5.536;2024-02-21T14:41:17;7.28;;;2.45;;